• Join FlightAware (Why Join?)
  • Login
  • US Flag 
11:45AM EDT


 

Airport Tracker/Info


-or-


 

Live Flight TrackerFlight Track Log ✈ UAL978 ✈ 03-Jul-2013 ✈ SBGR / GRU - KIAH

Flight Track Log - Related Links

Times and Time Zones

All times are in EDT time to prevent confusion due to time zone crossing. See the UAL978 flight status page for this flight to view local times or setup timezone preferences in your user account.

Time Position Orientation Groundspeed Altitude Reporting Facility
EDT Latitude Longitude Course Direction KTS MPH feet Rate Location/Type
07:59PM -23.4240 -46.4820 North 2 2  Level FlightAware
07:59PM -23.4240 -46.4830 270° West 2 2 300 Level FlightAware
08:00PM -23.4250 -46.4820 137° Southeast 1 1 300 Level FlightAware
08:03PM -23.3211 -46.7055 294° West  Level FlightAware Approximate
08:04PM -23.2702 -46.8212 296° West  Level FlightAware Approximate
08:05PM -23.2215 -46.9379 293° West  Level FlightAware Approximate
08:06PM -23.1747 -47.0555 293° West  Level FlightAware Approximate
08:07PM -23.1286 -47.1735 293° West  Level FlightAware Approximate
08:07PM -23.4270 -46.4840 270° West 9 10  Level FlightAware
08:07PM -23.4280 -46.4840 180° South 9 10 900 Level FlightAware
08:08PM -23.4290 -46.4840 180° South 5 6 960 Level FlightAware
08:08PM -23.4310 -46.4840 180° South 12 14 1,020 Level FlightAware
08:09PM -23.4320 -46.4830 137° Southeast 11 13 1,380 Level FlightAware
08:09PM -23.4330 -46.4830 180° South 7 8 1,680 Level FlightAware
08:10PM -23.4320 -46.4800 70° East 66 76 2,100 Level FlightAware
08:10PM -23.4300 -46.4710 76° East 135 155 3,360 Level FlightAware
08:11PM -23.4210 -46.4320 76° East 169 194 3,700 3,180 Climbing FlightAware
08:12PM -23.4330 -46.4000 112° Southeast 198 228 4,800 1,620 Climbing FlightAware
08:12PM -23.4480 -46.3990 177° South 196 226 5,200 1,800 Climbing FlightAware
08:12PM -23.4590 -46.4060 210° Southwest 207 238 5,700 1,740 Climbing FlightAware
08:12PM -23.4640 -46.4150 239° Southwest 209 241 5,900 1,980 Climbing FlightAware
08:13PM -23.4770 -46.4450 245° Southwest 213 245 7,000 1,740 Climbing FlightAware
08:13PM -23.4960 -46.4720 232° Southwest 234 269 7,700 1,260 Climbing FlightAware
08:14PM -23.5170 -46.5020 233° Southwest 258 297 8,300 1,260 Climbing FlightAware
08:14PM -23.5230 -46.5340 258° West 278 320 8,900 1,800 Climbing FlightAware
08:15PM -23.5240 -46.5780 269° West 295 339 9,900 1,560 Climbing FlightAware
08:16PM -23.5230 -46.6490 271° West 338 389 10,800 1,140 Climbing FlightAware
08:16PM -23.5230 -46.7130 270° West 372 428 11,500 1,380 Climbing FlightAware
08:17PM -23.5220 -46.7910 271° West 398 458 12,600 1,920 Climbing FlightAware
08:18PM -23.5210 -46.8810 271° West 409 471 14,300 2,160 Climbing FlightAware
08:18PM -23.5200 -46.9760 271° West 419 482 15,900 1,860 Climbing FlightAware
08:19PM -23.5190 -47.0670 271° West 436 502 17,000 780 Climbing FlightAware
08:20PM -23.5180 -47.1550 271° West 433 498 17,000  Level FlightAware
08:20PM -23.5170 -47.2470 271° West 433 498 17,000  Level FlightAware
08:21PM -23.5150 -47.3470 271° West 430 495 17,000  Level FlightAware
08:22PM -23.4840 -47.4280 293° West 421 484 17,000  Level FlightAware
08:22PM -23.4380 -47.4970 306° West 420 483 17,000 420 Level FlightAware
08:23PM -23.3960 -47.5590 306° West 423 487 17,600 1,500 Climbing FlightAware
08:24PM -23.3490 -47.6280 307° West 430 495 18,900 1,920 Climbing FlightAware
08:24PM -23.3090 -47.6870 306° West 434 499 20,000 1,800 Climbing FlightAware
08:25PM -23.2560 -47.7670 306° West 442 509 21,300 1,680 Climbing FlightAware
08:26PM -23.2130 -47.8310 306° West 447 514 22,300 1,620 Climbing FlightAware
08:27PM -23.1500 -47.9230 307° West 451 519 23,700 1,500 Climbing FlightAware
08:27PM -23.1000 -47.9970 306° West 460 529 24,600 1,320 Climbing FlightAware
08:28PM -23.0530 -48.0660 307° West 464 534 25,400 1,320 Climbing FlightAware
08:29PM -22.9970 -48.1490 306° West 468 539 26,400 1,680 Climbing FlightAware
08:29PM -22.9490 -48.2190 307° West 459 528 27,700 1,860 Climbing FlightAware
08:30PM -22.9090 -48.2780 306° West 457 526 28,600 1,380 Climbing FlightAware
08:30PM -22.8530 -48.3600 307° West 459 528 29,500 1,020 Climbing FlightAware
08:31PM -22.8050 -48.4300 307° West 464 534 30,000 360 Climbing FlightAware
08:32PM -22.7520 -48.5070 307° West 466 536 30,000  Level FlightAware
08:32PM -22.7070 -48.5720 307° West 465 535 30,000  Level FlightAware
08:33PM -22.6730 -48.6200 308° West 466 536 30,000  Level FlightAware
08:34PM -22.6170 -48.7020 306° West 466 536 30,000  Level FlightAware
08:34PM -22.5720 -48.7670 307° West 465 535 30,000  Level FlightAware
08:35PM -22.5240 -48.8350 307° West 463 533 30,000  Level FlightAware
08:36PM -22.4610 -48.9270 307° West 461 531 30,000  Level FlightAware
08:36PM -22.4090 -49.0010 307° West 460 529 30,000  Level FlightAware
08:37PM -22.3560 -49.0770 307° West 458 527 30,000  Level FlightAware
08:38PM -22.2960 -49.1510 311° West 459 528 30,000  Level FlightAware
08:38PM -22.2460 -49.2080 313° West 457 526 30,000  Level FlightAware
08:39PM -22.1860 -49.2750 314° West 456 525 30,000  Level FlightAware
08:40PM -22.1270 -49.3410 314° West 454 522 30,000  Level FlightAware
08:40PM -22.0660 -49.4090 314° West 454 522 30,000  Level FlightAware
08:41PM -22.0110 -49.4720 313° West 454 522 30,000  Level FlightAware
08:42PM -21.9460 -49.5430 315° West 454 522 30,000  Level FlightAware
08:42PM -21.8900 -49.6060 314° West 455 524 30,000  Level FlightAware
08:43PM -21.8320 -49.6700 314° West 455 524 30,000  Level FlightAware
08:44PM -21.7770 -49.7310 314° West 456 525 30,000  Level FlightAware
08:44PM -21.7350 -49.7760 315° West 456 525 30,000  Level FlightAware
08:45PM -21.6700 -49.8480 314° West 456 525 30,000  Level FlightAware
08:45PM -21.6130 -49.9110 314° West 457 526 30,000  Level FlightAware
08:46PM -21.5450 -49.9860 314° West 457 526 30,000  Level FlightAware
08:47PM -21.4890 -50.0470 315° West 458 527 30,000  Level FlightAware
08:47PM -21.4230 -50.1200 314° West 458 527 30,000  Level FlightAware
08:48PM -21.3680 -50.1810 314° West 459 528 30,000  Level FlightAware
08:49PM -21.3110 -50.2440 314° West 458 527 30,000  Level FlightAware
08:49PM -21.2680 -50.2920 314° West 459 528 30,000  Level FlightAware
08:51PM -21.1670 -50.4030 314° West 458 527 30,000  Level FlightAware
08:51PM -21.0920 -50.4840 315° West 459 528 30,000  Level FlightAware
08:52PM -21.0150 -50.5690 314° West 458 527 30,000  Level FlightAware
08:53PM -20.9440 -50.6480 314° West 458 527 30,000  Level FlightAware
08:54PM -20.8690 -50.7290 315° West 458 527 30,000  Level FlightAware
08:54PM -20.8190 -50.7820 315° West 458 527 30,000  Level FlightAware
08:55PM -20.7630 -50.8410 315° West 456 525 30,000  Level FlightAware
08:56PM -20.7170 -50.8900 315° West 456 525 30,000  Level FlightAware
08:57PM -20.6180 -50.9960 315° West 452 520 30,000  Level FlightAware
08:57PM -20.5600 -51.0580 315° West 452 520 30,000  Level FlightAware
08:58PM -20.5140 -51.1060 316° Northwest 452 520 30,000  Level FlightAware
08:59PM -20.4540 -51.1700 315° West 452 520 30,000  Level FlightAware
09:00PM -20.3940 -51.2350 315° West 452 520 30,000  Level FlightAware
09:00PM -20.3490 -51.2830 315° West 452 520 30,000  Level FlightAware
09:01PM -20.3030 -51.3310 316° Northwest 452 520 30,000  Level FlightAware
09:01PM -20.2580 -51.3790 315° West 452 520 30,000  Level FlightAware
09:02PM -20.2130 -51.4280 314° West 452 520 30,000  Level FlightAware
09:03PM -20.1680 -51.4760 315° West 452 520 30,000 1,380 Level FlightAware
09:03PM -20.0260 -51.6210 316° Northwest 436 502 32,000 1,260 Climbing FlightAware
09:04PM -19.9660 -51.6850 315° West 436 502 32,000  Level FlightAware
09:05PM -19.9090 -51.7450 315° West 436 502 32,000  Level FlightAware
09:05PM -19.8480 -51.8100 315° West 436 502 32,000  Level FlightAware
09:06PM -19.7930 -51.8670 316° Northwest 436 502 32,000  Level FlightAware
09:07PM -19.7340 -51.9300 315° West 436 502 32,000  Level FlightAware
09:07PM -19.6730 -51.9930 316° Northwest 437 503 32,000  Level FlightAware
09:08PM -19.6160 -52.0540 315° West 437 503 32,000  Level FlightAware
09:09PM -19.5510 -52.1210 316° Northwest 439 505 32,000  Level FlightAware
09:10PM -19.4930 -52.1820 315° West 439 505 32,000  Level FlightAware
09:10PM -19.4320 -52.2450 316° Northwest 440 506 32,000  Level FlightAware
09:11PM -19.3650 -52.3160 315° West 441 507 32,000  Level FlightAware
09:12PM -19.3110 -52.3720 316° Northwest 441 507 32,000  Level FlightAware
09:12PM -19.2470 -52.4390 315° West 441 507 32,000  Level FlightAware
09:13PM -19.1860 -52.5020 316° Northwest 441 507 32,000  Level FlightAware
09:14PM -19.1270 -52.5640 315° West 441 507 32,000  Level FlightAware
09:14PM -19.0710 -52.6220 316° Northwest 441 507 32,000  Level FlightAware
09:15PM -19.0080 -52.6880 315° West 441 507 32,000  Level FlightAware
09:16PM -18.9610 -52.7370 315° West 441 507 32,000  Level FlightAware
09:16PM -18.9090 -52.7910 316° Northwest 441 507 32,000  Level FlightAware
09:17PM -18.8370 -52.8660 315° West 441 507 32,000  Level FlightAware
09:18PM -18.7920 -52.9120 316° Northwest 441 507 32,000  Level FlightAware
09:18PM -18.7310 -52.9760 315° West 441 507 32,000  Level FlightAware
09:19PM -18.6640 -53.0450 316° Northwest 441 507 32,000  Level FlightAware
09:20PM -18.5990 -53.1130 315° West 441 507 32,000  Level FlightAware
09:20PM -18.5390 -53.1760 315° West 441 507 32,000  Level FlightAware
09:21PM -18.4860 -53.2310 315° West 442 509 32,000  Level FlightAware
09:22PM -18.4290 -53.2900 316° Northwest 441 507 32,000  Level FlightAware
09:22PM -18.3670 -53.3540 316° Northwest 441 507 32,000  Level FlightAware
09:23PM -18.3020 -53.4210 316° Northwest 443 510 32,000  Level FlightAware
09:24PM -18.2430 -53.4820 316° Northwest 443 510 32,000  Level FlightAware
09:25PM -18.1820 -53.5450 316° Northwest 443 510 32,000  Level FlightAware
09:25PM -18.1210 -53.6080 316° Northwest 443 510 32,000  Level FlightAware
09:26PM -18.0660 -53.6660 315° West 444 511 32,000  Level FlightAware
09:27PM -18.0040 -53.7300 316° Northwest 444 511 32,000  Level FlightAware
09:27PM -17.9500 -53.7860 315° West 444 511 32,000  Level FlightAware
09:28PM -17.8920 -53.8450 316° Northwest 444 511 32,000  Level FlightAware
09:29PM -17.8230 -53.9170 315° West 444 511 32,000  Level FlightAware
09:29PM -17.7600 -53.9820 315° West 444 511 32,000  Level FlightAware
09:30PM -17.6940 -54.0500 316° Northwest 444 511 32,000  Level FlightAware
09:31PM -17.6360 -54.1110 315° West 444 511 32,000  Level FlightAware
09:32PM -17.5780 -54.1720 315° West 444 511 32,000  Level FlightAware
09:32PM -17.5310 -54.2210 315° West 444 511 32,000  Level FlightAware
09:33PM -17.4880 -54.2670 314° West 444 511 32,000  Level FlightAware
09:34PM -17.4290 -54.3290 315° West 444 511 32,000  Level FlightAware
09:34PM -17.3710 -54.3890 315° West 444 511 32,000  Level FlightAware
09:35PM -17.3250 -54.4370 315° West 444 511 32,000  Level FlightAware
09:36PM -17.2500 -54.5160 315° West 444 511 32,000  Level FlightAware
09:37PM -17.2080 -54.5600 315° West 444 511 32,000  Level FlightAware
09:37PM -17.1490 -54.6220 315° West 444 511 32,000  Level FlightAware
09:38PM -17.1020 -54.6710 315° West 444 511 32,000  Level FlightAware
09:39PM -17.0450 -54.7310 315° West 444 511 32,000  Level FlightAware
09:39PM -17.0010 -54.7770 315° West 444 511 32,000  Level FlightAware
09:42PM -16.8085 -54.9459 320° Northwest  Level Estimated
09:43PM -16.7131 -55.0295 320° Northwest  Level Estimated
09:44PM -16.6176 -55.1130 320° Northwest  Level Estimated
09:45PM -16.5220 -55.1964 320° Northwest  Level Estimated
09:46PM -16.4264 -55.2798 320° Northwest  Level Estimated
09:47PM -16.3308 -55.3631 320° Northwest  Level Estimated
09:48PM -16.2352 -55.4463 320° Northwest  Level Estimated
09:49PM -16.1395 -55.5294 320° Northwest  Level Estimated
09:50PM -16.0438 -55.6124 320° Northwest  Level Estimated
09:51PM -15.9480 -55.6954 320° Northwest  Level Estimated
09:52PM -15.8523 -55.7783 320° Northwest  Level Estimated
09:53PM -15.7565 -55.8611 320° Northwest  Level Estimated
09:54PM -15.6606 -55.9438 320° Northwest  Level Estimated
09:55PM -15.5647 -56.0265 320° Northwest  Level Estimated
09:56PM -15.4689 -56.1090 320° Northwest  Level Estimated
09:57PM -15.3729 -56.1915 320° Northwest  Level Estimated
09:58PM -15.2770 -56.2739 320° Northwest  Level Estimated
09:59PM -15.1810 -56.3563 320° Northwest  Level Estimated
10:00PM -15.0850 -56.4385 320° Northwest  Level Estimated
10:01PM -14.9889 -56.5207 320° Northwest  Level Estimated
10:02PM -14.8928 -56.6028 320° Northwest  Level Estimated
10:03PM -14.7967 -56.6849 320° Northwest  Level Estimated
10:04PM -14.7006 -56.7668 320° Northwest  Level Estimated
10:05PM -14.6044 -56.8487 321° Northwest  Level Estimated
10:06PM -14.5082 -56.9306 321° Northwest  Level Estimated
10:07PM -14.4120 -57.0123 321° Northwest  Level Estimated
10:08PM -14.3157 -57.0940 321° Northwest  Level Estimated
10:09PM -14.2195 -57.1756 321° Northwest  Level Estimated
10:10PM -14.1231 -57.2572 321° Northwest  Level Estimated
10:11PM -14.0268 -57.3386 321° Northwest  Level Estimated
10:12PM -13.9305 -57.4201 321° Northwest  Level Estimated
10:13PM -13.8341 -57.5014 321° Northwest  Level Estimated
10:14PM -13.7375 -57.5828 321° Northwest  Level Estimated
10:15PM -13.6409 -57.6642 321° Northwest  Level Estimated
10:16PM -13.5442 -57.7454 321° Northwest  Level Estimated
10:17PM -13.4476 -57.8266 321° Northwest  Level Estimated
10:18PM -13.3509 -57.9078 321° Northwest  Level Estimated
10:19PM -13.2542 -57.9889 321° Northwest  Level Estimated
10:20PM -13.1574 -58.0699 321° Northwest  Level Estimated
10:21PM -13.0607 -58.1509 321° Northwest  Level Estimated
10:22PM -12.9641 -58.2316 321° Northwest  Level Estimated
10:23PM -12.8674 -58.3123 321° Northwest  Level Estimated
10:24PM -12.7707 -58.3929 321° Northwest  Level Estimated
10:25PM -12.6740 -58.4735 321° Northwest  Level Estimated
10:26PM -12.5773 -58.5540 321° Northwest  Level Estimated
10:27PM -12.4806 -58.6344 321° Northwest  Level Estimated
10:28PM -12.3838 -58.7148 321° Northwest  Level Estimated
10:29PM -12.2870 -58.7951 321° Northwest  Level Estimated
10:30PM -12.1902 -58.8754 321° Northwest  Level Estimated
10:31PM -12.0934 -58.9556 321° Northwest  Level Estimated
10:32PM -11.9965 -59.0358 321° Northwest  Level Estimated
10:33PM -11.8996 -59.1158 321° Northwest  Level Estimated
10:34PM -11.8027 -59.1959 321° Northwest  Level Estimated
10:35PM -11.7058 -59.2758 321° Northwest  Level Estimated
10:36PM -11.6088 -59.3558 321° Northwest  Level Estimated
10:37PM -11.5119 -59.4356 321° Northwest  Level Estimated
10:38PM -11.4149 -59.5154 321° Northwest  Level Estimated
10:39PM -11.3179 -59.5952 321° Northwest  Level Estimated
10:40PM -11.2208 -59.6749 321° Northwest  Level Estimated
10:41PM -11.1237 -59.7546 321° Northwest  Level Estimated
10:42PM -11.0267 -59.8341 321° Northwest  Level Estimated
10:43PM -10.9296 -59.9137 321° Northwest  Level Estimated
10:44PM -10.8324 -59.9932 321° Northwest  Level Estimated
10:45PM -10.7353 -60.0726 321° Northwest  Level Estimated
10:46PM -10.6382 -60.1520 321° Northwest  Level Estimated
10:47PM -10.5410 -60.2313 321° Northwest  Level Estimated
10:48PM -10.4438 -60.3106 321° Northwest  Level Estimated
10:49PM -10.3465 -60.3899 321° Northwest  Level Estimated
10:50PM -10.2493 -60.4691 321° Northwest  Level Estimated
10:51PM -10.1521 -60.5482 321° Northwest  Level Estimated
10:52PM -10.0548 -60.6273 321° Northwest  Level Estimated
10:53PM -9.9575 -60.7063 321° Northwest  Level Estimated
10:54PM -9.8602 -60.7853 321° Northwest  Level Estimated
10:55PM -9.7628 -60.8643 321° Northwest  Level Estimated
10:56PM -9.6655 -60.9432 321° Northwest  Level Estimated
10:57PM -9.5681 -61.0220 321° Northwest  Level Estimated
10:58PM -9.4707 -61.1008 321° Northwest  Level Estimated
10:59PM -9.3733 -61.1796 321° Northwest  Level Estimated
11:00PM -9.2759 -61.2583 321° Northwest  Level Estimated
11:01PM -9.1784 -61.3370 321° Northwest  Level Estimated
11:02PM -9.0810 -61.4157 321° Northwest  Level Estimated
11:03PM -8.9835 -61.4943 321° Northwest  Level Estimated
11:04PM -8.8860 -61.5728 321° Northwest  Level Estimated
11:05PM -8.7885 -61.6513 321° Northwest  Level Estimated
11:06PM -8.6910 -61.7298 321° Northwest  Level Estimated
11:07PM -8.5935 -61.8082 322° Northwest  Level Estimated
11:08PM -8.4959 -61.8866 322° Northwest  Level Estimated
11:09PM -8.3983 -61.9650 322° Northwest  Level Estimated
11:10PM -8.3007 -62.0433 322° Northwest  Level Estimated
11:11PM -8.2031 -62.1215 322° Northwest  Level Estimated
11:12PM -8.1055 -62.1998 322° Northwest  Level Estimated
11:13PM -8.0079 -62.2780 322° Northwest  Level Estimated
11:14PM -7.9103 -62.3561 322° Northwest  Level Estimated
11:15PM -7.8126 -62.4342 322° Northwest  Level Estimated
11:16PM -7.7147 -62.5125 322° Northwest  Level Estimated
11:17PM -7.6169 -62.5906 322° Northwest  Level Estimated
11:18PM -7.5190 -62.6688 322° Northwest  Level Estimated
11:19PM -7.4211 -62.7469 322° Northwest  Level Estimated
11:20PM -7.3232 -62.8250 322° Northwest  Level Estimated
11:21PM -7.2253 -62.9030 322° Northwest  Level Estimated
11:22PM -7.1274 -62.9810 322° Northwest  Level Estimated
11:23PM -7.0294 -63.0590 322° Northwest  Level Estimated
11:24PM -6.9315 -63.1369 322° Northwest  Level Estimated
11:25PM -6.8335 -63.2149 322° Northwest  Level Estimated
11:26PM -6.7355 -63.2927 322° Northwest  Level Estimated
11:27PM -6.6377 -63.3704 322° Northwest  Level Estimated
11:28PM -6.5399 -63.4481 322° Northwest  Level Estimated
11:29PM -6.4420 -63.5258 322° Northwest  Level Estimated
11:30PM -6.3442 -63.6034 322° Northwest  Level Estimated
11:31PM -6.2463 -63.6810 322° Northwest  Level Estimated
11:32PM -6.1484 -63.7585 322° Northwest  Level Estimated
11:33PM -6.0505 -63.8361 322° Northwest  Level Estimated
11:34PM -5.9527 -63.9136 322° Northwest  Level Estimated
11:35PM -5.8547 -63.9911 322° Northwest  Level Estimated
11:36PM -5.7568 -64.0685 322° Northwest  Level Estimated
11:37PM -5.6589 -64.1459 322° Northwest  Level Estimated
11:38PM -5.5609 -64.2233 322° Northwest  Level Estimated
11:39PM -5.4628 -64.3008 322° Northwest  Level Estimated
11:40PM -5.3647 -64.3783 322° Northwest  Level Estimated
11:41PM -5.2666 -64.4558 322° Northwest  Level Estimated
11:42PM -5.1684 -64.5332 322° Northwest  Level Estimated
11:43PM -5.0703 -64.6106 322° Northwest  Level Estimated
11:44PM -4.9722 -64.6879 322° Northwest  Level Estimated
11:45PM -4.8742 -64.7651 322° Northwest  Level Estimated
11:46PM -4.7762 -64.8423 322° Northwest  Level Estimated
11:47PM -4.6782 -64.9195 322° Northwest  Level Estimated
11:48PM -4.5802 -64.9966 322° Northwest  Level Estimated
11:49PM -4.4821 -65.0738 322° Northwest  Level Estimated
11:50PM -4.3841 -65.1509 322° Northwest  Level Estimated
11:51PM -4.2860 -65.2280 322° Northwest  Level Estimated
11:52PM -4.1879 -65.3051 322° Northwest  Level Estimated
11:53PM -4.0898 -65.3821 322° Northwest  Level Estimated
11:54PM -3.9916 -65.4593 322° Northwest  Level Estimated
11:55PM -3.8933 -65.5365 322° Northwest  Level Estimated
11:56PM -3.7951 -65.6136 322° Northwest  Level Estimated
11:57PM -3.6968 -65.6907 322° Northwest  Level Estimated
11:58PM -3.5985 -65.7678 322° Northwest  Level Estimated
11:59PM -3.5002 -65.8449 322° Northwest  Level Estimated
12:00AM -3.4019 -65.9220 322° Northwest  Level Estimated
12:01AM -3.3036 -65.9990 322° Northwest  Level Estimated
12:02AM -3.2053 -66.0761 322° Northwest  Level Estimated
12:03AM -3.1070 -66.1531 322° Northwest  Level Estimated
12:04AM -3.0087 -66.2301 322° Northwest  Level Estimated
12:05AM -2.9104 -66.3071 322° Northwest  Level Estimated
12:06AM -2.8120 -66.3841 322° Northwest  Level Estimated
12:07AM -2.7137 -66.4611 322° Northwest  Level Estimated
12:08AM -2.6154 -66.5380 322° Northwest  Level Estimated
12:09AM -2.5170 -66.6150 322° Northwest  Level Estimated
12:10AM -2.4187 -66.6919 322° Northwest  Level Estimated
12:11AM -2.3203 -66.7688 322° Northwest  Level Estimated
12:12AM -2.2220 -66.8457 322° Northwest  Level Estimated
12:13AM -2.1236 -66.9226 322° Northwest  Level Estimated
12:14AM -2.0252 -66.9995 322° Northwest  Level Estimated
12:15AM -1.9269 -67.0764 322° Northwest  Level Estimated
12:16AM -1.8285 -67.1533 322° Northwest  Level Estimated
12:17AM -1.7301 -67.2301 322° Northwest  Level Estimated
12:18AM -1.6318 -67.3070 322° Northwest  Level Estimated
12:19AM -1.5334 -67.3838 322° Northwest  Level Estimated
12:20AM -1.4350 -67.4607 322° Northwest  Level Estimated
12:21AM -1.3366 -67.5375 322° Northwest  Level Estimated
12:22AM -1.2382 -67.6143 322° Northwest  Level Estimated
12:23AM -1.1398 -67.6912 322° Northwest  Level Estimated
12:24AM -1.0414 -67.7680 322° Northwest  Level Estimated
12:25AM -0.9431 -67.8448 322° Northwest  Level Estimated
12:26AM -0.8446 -67.9216 322° Northwest  Level Estimated
12:27AM -0.7462 -67.9984 322° Northwest  Level Estimated
12:28AM -0.6478 -68.0752 322° Northwest  Level Estimated
12:29AM -0.5494 -68.1520 322° Northwest  Level Estimated
12:30AM -0.4511 -68.2288 322° Northwest  Level Estimated
12:31AM -0.3526 -68.3056 322° Northwest  Level Estimated
12:32AM -0.2542 -68.3824 322° Northwest  Level Estimated
12:33AM -0.1558 -68.4592 322° Northwest  Level Estimated
12:34AM -0.0575 -68.5360 322° Northwest  Level Estimated
12:35AM 0.0410 -68.6128 322° Northwest  Level Estimated
12:36AM 0.1393 -68.6896 322° Northwest  Level Estimated
12:37AM 0.2377 -68.7663 322° Northwest  Level Estimated
12:38AM 0.3361 -68.8431 322° Northwest  Level Estimated
12:39AM 0.4345 -68.9199 322° Northwest  Level Estimated
12:40AM 0.5329 -68.9967 322° Northwest  Level Estimated
12:41AM 0.6313 -69.0735 322° Northwest  Level Estimated
12:42AM 0.7296 -69.1502 322° Northwest  Level Estimated
12:43AM 0.8278 -69.2269 322° Northwest  Level Estimated
12:44AM 0.9260 -69.3036 322° Northwest  Level Estimated
12:45AM 1.0243 -69.3802 322° Northwest  Level Estimated
12:46AM 1.1225 -69.4569 322° Northwest  Level Estimated
12:47AM 1.2207 -69.5336 322° Northwest  Level Estimated
12:48AM 1.3189 -69.6103 322° Northwest  Level Estimated
12:49AM 1.4171 -69.6870 322° Northwest  Level Estimated
12:50AM 1.5153 -69.7637 322° Northwest  Level Estimated
12:51AM 1.6136 -69.8404 322° Northwest  Level Estimated
12:52AM 1.7118 -69.9171 322° Northwest  Level Estimated
12:53AM 1.8100 -69.9939 322° Northwest  Level Estimated
12:54AM 1.9082 -70.0706 322° Northwest  Level Estimated
12:55AM 2.0064 -70.1474 322° Northwest  Level Estimated
12:56AM 2.1046 -70.2241 322° Northwest  Level Estimated
12:57AM 2.2027 -70.3009 322° Northwest  Level Estimated
12:58AM 2.3009 -70.3777 322° Northwest  Level Estimated
12:59AM 2.3991 -70.4545 322° Northwest  Level Estimated
01:00AM 2.4973 -70.5313 322° Northwest  Level Estimated
01:01AM 2.5955 -70.6081 322° Northwest  Level Estimated
01:02AM 2.6936 -70.6849 322° Northwest  Level Estimated
01:03AM 2.7918 -70.7617 322° Northwest  Level Estimated
01:04AM 2.8900 -70.8386 322° Northwest  Level Estimated
01:05AM 2.9881 -70.9154 322° Northwest  Level Estimated
01:06AM 3.0863 -70.9923 322° Northwest  Level Estimated
01:07AM 3.1844 -71.0692 322° Northwest  Level Estimated
01:08AM 3.2825 -71.1461 322° Northwest  Level Estimated
01:09AM 3.3807 -71.2230 322° Northwest  Level Estimated
01:10AM 3.4788 -71.2999 322° Northwest  Level Estimated
01:11AM 3.5769 -71.3769 322° Northwest  Level Estimated
01:12AM 3.6750 -71.4539 322° Northwest  Level Estimated
01:13AM 3.7731 -71.5308 322° Northwest  Level Estimated
01:14AM 3.8712 -71.6078 322° Northwest  Level Estimated
01:15AM 3.9693 -71.6849 322° Northwest  Level Estimated
01:16AM 4.0674 -71.7619 322° Northwest  Level Estimated
01:16AM 5.2390 -72.8250 322° Northwest 475 547 36,000  Level FlightAware
01:16AM 5.3010 -72.8580 332° Northwest 475 547 36,000  Level FlightAware
01:17AM 5.3790 -72.9010 331° Northwest 474 545 36,000  Level FlightAware
01:18AM 5.4650 -72.9470 332° Northwest 475 547 36,000  Level FlightAware
01:18AM 5.5500 -72.9910 333° Northwest 474 545 36,000  Level FlightAware
01:19AM 5.6280 -73.0330 332° Northwest 475 547 36,000  Level FlightAware
01:20AM 5.7130 -73.0780 332° Northwest 476 548 36,000  Level FlightAware
01:21AM 5.8040 -73.1280 331° Northwest 476 548 36,000  Level FlightAware
01:21AM 5.8630 -73.1610 331° Northwest 476 548 36,000  Level FlightAware
01:22AM 5.9240 -73.1950 331° Northwest 476 548 36,000  Level FlightAware
01:23AM 6.0020 -73.2390 331° Northwest 476 548 36,000  Level FlightAware
01:23AM 6.0580 -73.2700 331° Northwest 476 548 36,000  Level FlightAware
01:24AM 6.2060 -73.3410 335° Northwest 477 549 36,000  Level FlightAware
01:25AM 6.2840 -73.3820 332° Northwest 478 550 36,000  Level FlightAware
01:25AM 6.3730 -73.4300 332° Northwest 478 550 36,000  Level FlightAware
01:26AM 6.4520 -73.4730 332° Northwest 478 550 36,000  Level FlightAware
01:27AM 6.5300 -73.5150 332° Northwest 478 550 36,000  Level FlightAware
01:27AM 6.6180 -73.5620 332° Northwest 478 550 36,000  Level FlightAware
01:28AM 6.6940 -73.6040 331° Northwest 477 549 36,000  Level FlightAware
01:29AM 6.7850 -73.6530 332° Northwest 477 549 36,000  Level FlightAware
01:30AM 6.9210 -73.7260 332° Northwest 475 547 36,000  Level FlightAware
01:31AM 6.9990 -73.7680 332° Northwest 473 544 36,000  Level FlightAware
01:31AM 7.0700 -73.8070 331° Northwest 472 543 36,000  Level FlightAware
01:32AM 7.1500 -73.8710 322° Northwest 472 543 36,000  Level FlightAware
01:33AM 7.2340 -73.9480 318° Northwest 471 542 36,000  Level FlightAware
01:34AM 7.3070 -74.0150 318° Northwest 469 540 36,000  Level FlightAware
01:34AM 7.3630 -74.0660 318° Northwest 468 539 36,000  Level FlightAware
01:35AM 7.4270 -74.1240 318° Northwest 467 537 36,000  Level FlightAware
01:36AM 7.4980 -74.1900 317° Northwest 467 537 36,000  Level FlightAware
01:36AM 7.5630 -74.2480 319° Northwest 466 536 36,000  Level FlightAware
01:37AM 7.6270 -74.3070 318° Northwest 466 536 36,000  Level FlightAware
01:38AM 7.7000 -74.3730 318° Northwest 466 536 36,000  Level FlightAware
01:38AM 7.7520 -74.4200 318° Northwest 467 537 36,000  Level FlightAware
01:39AM 7.8320 -74.4940 318° Northwest 467 537 36,000  Level FlightAware
01:40AM 7.9000 -74.5560 318° Northwest 467 537 36,000  Level FlightAware
01:41AM 7.9640 -74.6140 318° Northwest 465 535 36,000  Level FlightAware
01:41AM 8.0360 -74.6790 318° Northwest 464 534 36,000  Level FlightAware
01:42AM 8.0980 -74.7360 318° Northwest 464 534 36,000  Level FlightAware
01:43AM 8.1700 -74.8020 318° Northwest 464 534 36,000  Level FlightAware
01:43AM 8.2280 -74.8540 318° Northwest 464 534 36,000  Level FlightAware
01:44AM 8.2970 -74.9170 318° Northwest 464 534 36,000  Level FlightAware
01:44AM 8.3390 -74.9560 317° Northwest 464 534 36,000  Level FlightAware
01:45AM 8.4070 -75.0180 318° Northwest 463 533 36,000  Level FlightAware
01:46AM 8.4730 -75.0790 318° Northwest 461 531 36,000  Level FlightAware
01:47AM 8.5420 -75.1440 317° Northwest 461 531 36,000  Level FlightAware
01:47AM 8.6120 -75.2080 318° Northwest 460 529 36,000  Level FlightAware
01:48AM 8.6790 -75.2700 318° Northwest 459 528 36,000  Level FlightAware
01:49AM 8.7630 -75.3480 317° Northwest 459 528 36,000  Level FlightAware
01:50AM 8.8310 -75.4100 318° Northwest 460 529 36,000  Level FlightAware
01:50AM 8.8840 -75.4610 316° Northwest 459 528 36,000  Level FlightAware
01:51AM 8.9840 -75.5530 318° Northwest 459 528 36,000  Level FlightAware
01:52AM 9.0290 -75.5960 317° Northwest 459 528 36,000  Level FlightAware
01:53AM 9.1240 -75.6820 318° Northwest 461 531 36,000  Level FlightAware
01:54AM 9.2170 -75.7680 318° Northwest 461 531 36,000  Level FlightAware
01:54AM 9.2810 -75.8270 318° Northwest 463 533 36,000  Level FlightAware
01:55AM 9.3460 -75.8870 318° Northwest 464 534 36,000  Level FlightAware
01:56AM 9.4090 -75.9460 317° Northwest 464 534 36,000  Level FlightAware
01:56AM 9.4660 -75.9980 318° Northwest 464 534 36,000  Level FlightAware
01:57AM 9.5370 -76.0650 317° Northwest 465 535 36,000  Level FlightAware
01:58AM 9.6000 -76.1240 317° Northwest 465 535 36,000  Level FlightAware
01:58AM 9.6570 -76.1770 317° Northwest 466 536 36,000  Level FlightAware
01:59AM 9.7350 -76.2500 317° Northwest 466 536 36,000  Level FlightAware
02:00AM 9.7970 -76.3070 318° Northwest 468 539 36,000  Level FlightAware
02:01AM 9.8720 -76.3770 317° Northwest 462 532 36,000  Level FlightAware
02:01AM 9.9370 -76.4370 318° Northwest 463 533 36,000  Level FlightAware
02:02AM 10.0210 -76.5180 316° Northwest 463 533 36,000  Level FlightAware
02:03AM 10.1220 -76.6100 318° Northwest 462 532 36,000  Level FlightAware
02:04AM 10.1860 -76.6700 317° Northwest 461 531 36,000  Level FlightAware
02:05AM 10.2400 -76.7200 318° Northwest 461 531 36,000  Level FlightAware
02:05AM 10.3060 -76.7810 318° Northwest 460 529 36,000  Level FlightAware
02:06AM 10.3680 -76.8390 317° Northwest 460 529 36,000  Level FlightAware
02:07AM 10.4400 -76.9070 317° Northwest 464 534 36,000  Level FlightAware
02:07AM 10.4980 -76.9610 318° Northwest 464 534 36,000  Level FlightAware
02:08AM 10.5920 -77.0490 317° Northwest 462 532 36,000  Level FlightAware
02:09AM 10.6540 -77.1080 317° Northwest 462 532 36,000  Level FlightAware
02:10AM 10.7330 -77.1830 317° Northwest 461 531 36,000  Level FlightAware
02:10AM 10.8020 -77.2470 318° Northwest 460 529 36,000  Level FlightAware
02:11AM 10.8640 -77.3050 317° Northwest 460 529 36,000  Level FlightAware
02:12AM 10.9290 -77.3660 317° Northwest 460 529 36,000  Level FlightAware
02:13AM 10.9990 -77.4280 319° Northwest 458 527 36,000  Level FlightAware
02:13AM 11.0670 -77.4820 322° Northwest 451 519 36,000  Level FlightAware
02:14AM 11.1380 -77.5370 323° Northwest 451 519 36,000  Level FlightAware
02:15AM 11.2120 -77.5960 322° Northwest 451 519 36,000  Level FlightAware
02:16AM 11.2810 -77.6510 322° Northwest 451 519 36,000  Level FlightAware
02:17AM 11.4520 -77.7800 324° Northwest 453 521 36,000  Level FlightAware
02:18AM 11.5600 -77.8640 323° Northwest 453 521 36,000  Level FlightAware
02:19AM 11.6150 -77.9070 323° Northwest 453 521 36,000  Level FlightAware
02:20AM 11.6820 -77.9610 322° Northwest 453 521 36,000  Level FlightAware
02:20AM 11.7470 -78.0130 322° Northwest 453 521 36,000  Level FlightAware
02:21AM 11.7970 -78.0530 322° Northwest 453 521 36,000  Level FlightAware
02:22AM 11.8640 -78.1070 322° Northwest 453 521 36,000  Level FlightAware
02:22AM 11.9150 -78.1470 322° Northwest 453 521 36,000  Level FlightAware
02:23AM 11.9660 -78.1870 323° Northwest 453 521 36,000  Level FlightAware
02:24AM 12.0330 -78.2410 322° Northwest 453 521 36,000  Level FlightAware
02:24AM 12.0670 -78.2680 322° Northwest 453 521 36,000  Level FlightAware
02:25AM 12.1340 -78.3220 322° Northwest 453 521 36,000  Level FlightAware
02:26AM 12.2360 -78.4040 322° Northwest 453 521 36,000  Level FlightAware
02:27AM 12.2840 -78.4420 322° Northwest 453 521 36,000  Level FlightAware
02:27AM 12.3520 -78.4960 322° Northwest 453 521 36,000  Level FlightAware
02:30AM 12.5686 -78.6274 329° Northwest  Level FlightAware Approximate
02:31AM 12.6760 -78.6926 329° Northwest  Level FlightAware Approximate
02:32AM 12.7833 -78.7579 329° Northwest  Level FlightAware Approximate
02:33AM 12.8906 -78.8232 329° Northwest  Level FlightAware Approximate
02:34AM 12.9980 -78.8886 329° Northwest  Level FlightAware Approximate
02:35AM 13.0946 -78.9697 319° Northwest  Level Estimated
02:36AM 13.1893 -79.0532 319° Northwest  Level FlightAware Approximate
02:37AM 13.2840 -79.1367 319° Northwest  Level FlightAware Approximate
02:38AM 13.3787 -79.2203 319° Northwest  Level FlightAware Approximate
02:39AM 13.4733 -79.3040 319° Northwest  Level FlightAware Approximate
02:40AM 13.5680 -79.3877 319° Northwest  Level FlightAware Approximate
02:41AM 13.6625 -79.4715 319° Northwest  Level FlightAware Approximate
02:42AM 13.7571 -79.5554 319° Northwest  Level FlightAware Approximate
02:43AM 13.8516 -79.6393 319° Northwest  Level FlightAware Approximate
02:44AM 13.9461 -79.7233 319° Northwest  Level FlightAware Approximate
02:45AM 14.0406 -79.8074 319° Northwest  Level FlightAware Approximate
02:46AM 14.1351 -79.8915 319° Northwest  Level FlightAware Approximate
02:47AM 14.2295 -79.9757 319° Northwest  Level FlightAware Approximate
02:48AM 14.3239 -80.0600 319° Northwest  Level FlightAware Approximate
02:49AM 14.4182 -80.1444 319° Northwest  Level FlightAware Approximate
02:50AM 14.5126 -80.2288 319° Northwest  Level FlightAware Approximate
02:51AM 14.6069 -80.3133 319° Northwest  Level FlightAware Approximate
02:52AM 14.7011 -80.3979 319° Northwest  Level FlightAware Approximate
02:53AM 14.7954 -80.4825 319° Northwest  Level FlightAware Approximate
02:54AM 14.8896 -80.5672 319° Northwest  Level FlightAware Approximate
02:55AM 14.9837 -80.6520 319° Northwest  Level FlightAware Approximate
02:56AM 15.0800 -80.7343 319° Northwest  Level Estimated
02:57AM 15.1741 -80.8192 319° Northwest  Level FlightAware Approximate
02:58AM 15.2682 -80.9042 319° Northwest  Level FlightAware Approximate
02:59AM 15.3623 -80.9892 319° Northwest  Level FlightAware Approximate
03:00AM 15.4564 -81.0743 319° Northwest  Level FlightAware Approximate
03:01AM 15.5504 -81.1596 319° Northwest  Level FlightAware Approximate
03:02AM 15.6444 -81.2449 319° Northwest  Level FlightAware Approximate
03:03AM 15.7383 -81.3302 319° Northwest  Level FlightAware Approximate
03:04AM 15.8344 -81.4130 319° Northwest  Level Estimated
03:05AM 15.9287 -81.4980 319° Northwest  Level FlightAware Approximate
03:06AM 16.0230 -81.5831 319° Northwest  Level FlightAware Approximate
03:07AM 16.1173 -81.6682 319° Northwest  Level FlightAware Approximate
03:08AM 16.2115 -81.7534 319° Northwest  Level FlightAware Approximate
03:09AM 16.3057 -81.8387 319° Northwest  Level FlightAware Approximate
03:10AM 16.3999 -81.9241 319° Northwest  Level FlightAware Approximate
03:11AM 16.4940 -82.0096 319° Northwest  Level FlightAware Approximate
03:12AM 16.5881 -82.0952 319° Northwest  Level FlightAware Approximate
03:13AM 16.6840 -82.1786 319° Northwest  Level Estimated
03:14AM 16.7778 -82.2646 319° Northwest  Level FlightAware Approximate
03:15AM 16.8715 -82.3507 319° Northwest  Level FlightAware Approximate
03:16AM 16.9653 -82.4368 319° Northwest  Level FlightAware Approximate
03:17AM 17.0589 -82.5231 319° Northwest  Level FlightAware Approximate
03:18AM 17.1526 -82.6095 319° Northwest  Level FlightAware Approximate
03:19AM 17.2462 -82.6959 319° Northwest  Level FlightAware Approximate
03:20AM 17.3398 -82.7824 319° Northwest  Level FlightAware Approximate
03:21AM 17.4333 -82.8690 319° Northwest  Level FlightAware Approximate
03:22AM 17.5268 -82.9557 319° Northwest  Level FlightAware Approximate
03:23AM 17.6203 -83.0425 318° Northwest  Level FlightAware Approximate
03:24AM 17.7159 -83.1267 319° Northwest  Level Estimated
03:25AM 17.8092 -83.2137 318° Northwest  Level FlightAware Approximate
03:26AM 17.9025 -83.3008 318° Northwest  Level FlightAware Approximate
03:27AM 17.9958 -83.3880 318° Northwest  Level FlightAware Approximate
03:28AM 18.0890 -83.4753 318° Northwest  Level FlightAware Approximate
03:29AM 18.1822 -83.5627 318° Northwest  Level FlightAware Approximate
03:30AM 18.2753 -83.6502 318° Northwest  Level FlightAware Approximate
03:31AM 18.3684 -83.7378 318° Northwest  Level FlightAware Approximate
03:32AM 18.4615 -83.8255 318° Northwest  Level FlightAware Approximate
03:33AM 18.5545 -83.9133 318° Northwest  Level FlightAware Approximate
03:34AM 18.6474 -84.0012 318° Northwest  Level FlightAware Approximate
03:35AM 18.7428 -84.0861 318° Northwest  Level Estimated
03:36AM 18.8353 -84.1747 318° Northwest  Level FlightAware Approximate
03:37AM 18.9277 -84.2634 318° Northwest  Level FlightAware Approximate
03:38AM 19.0201 -84.3521 318° Northwest  Level FlightAware Approximate
03:39AM 19.1124 -84.4410 318° Northwest  Level FlightAware Approximate
03:40AM 19.2047 -84.5300 318° Northwest  Level FlightAware Approximate
03:41AM 19.2969 -84.6191 318° Northwest  Level FlightAware Approximate
03:41AM 19.2860 -85.1720 318° Northwest 451 519 36,000  Level FlightAware
03:42AM 19.3891 -84.7082 318° Northwest  Level FlightAware Approximate
03:42AM 19.3470 -85.2300 318° Northwest 450 518 36,000  Level FlightAware
03:43AM 19.4100 -85.2890 319° Northwest 449 517 36,000  Level FlightAware
03:43AM 19.4770 -85.3520 318° Northwest 448 516 36,000  Level FlightAware
03:44AM 19.5840 -85.4520 319° Northwest 447 514 36,000  Level FlightAware
03:45AM 19.6510 -85.5140 319° Northwest 446 513 36,000  Level FlightAware
03:46AM 19.7150 -85.5750 318° Northwest 447 514 36,000  Level FlightAware
03:47AM 19.7830 -85.6380 319° Northwest 446 513 36,000  Level FlightAware
03:47AM 19.8440 -85.6960 318° Northwest 446 513 36,000  Level FlightAware
03:48AM 19.9130 -85.7600 319° Northwest 445 512 36,000  Level FlightAware
03:49AM 19.9740 -85.8180 318° Northwest 444 511 36,000  Level FlightAware
03:49AM 20.0420 -85.8810 319° Northwest 445 512 36,000  Level FlightAware
03:50AM 20.1060 -85.9420 318° Northwest 446 513 36,000  Level FlightAware
03:51AM 20.1740 -86.0070 318° Northwest 448 516 36,000  Level FlightAware
03:51AM 20.2330 -86.0630 318° Northwest 450 518 36,000  Level FlightAware
03:52AM 20.2880 -86.1150 318° Northwest 451 519 36,000  Level FlightAware
03:53AM 20.3490 -86.1720 319° Northwest 453 521 36,000  Level FlightAware
03:53AM 20.4170 -86.2370 318° Northwest 454 522 36,000  Level FlightAware
03:54AM 20.4900 -86.3070 318° Northwest 456 525 36,000  Level FlightAware
03:55AM 20.5670 -86.3810 318° Northwest 457 526 36,000  Level FlightAware
03:56AM 20.6310 -86.4420 318° Northwest 458 527 36,000  Level FlightAware
03:56AM 20.7000 -86.5080 318° Northwest 458 527 36,000  Level FlightAware
03:57AM 20.7620 -86.5670 318° Northwest 458 527 36,000  Level FlightAware
03:58AM 20.8310 -86.6340 318° Northwest 458 527 36,000  Level FlightAware
03:58AM 20.8930 -86.6930 318° Northwest 458 527 36,000  Level FlightAware
03:59AM 20.9550 -86.7530 318° Northwest 459 528 36,000  Level FlightAware
04:00AM 21.0170 -86.8130 318° Northwest 459 528 36,000  Level FlightAware
04:00AM 21.0830 -86.8770 318° Northwest 460 529 36,000  Level FlightAware
04:01AM 21.1410 -86.9330 318° Northwest 460 529 36,000  Level FlightAware
04:02AM 21.2090 -86.9970 319° Northwest 460 529 36,000  Level FlightAware
04:02AM 21.2740 -87.0600 318° Northwest 460 529 36,000  Level FlightAware
04:03AM 21.3350 -87.1180 318° Northwest 462 532 36,000  Level FlightAware
04:04AM 21.4080 -87.1890 318° Northwest 463 533 36,000  Level FlightAware
04:04AM 21.4680 -87.2470 318° Northwest 464 534 36,000  Level FlightAware
04:05AM 21.5400 -87.3160 318° Northwest 464 534 36,000  Level FlightAware
04:06AM 21.5990 -87.3750 317° Northwest 465 535 36,000  Level FlightAware
04:06AM 21.6640 -87.4380 318° Northwest 465 535 36,000  Level FlightAware
04:07AM 21.7310 -87.5030 318° Northwest 465 535 36,000  Level FlightAware
04:08AM 21.7890 -87.5600 318° Northwest 466 536 36,000  Level FlightAware
04:08AM 21.8440 -87.6150 317° Northwest 466 536 36,000  Level FlightAware
04:09AM 21.9390 -87.7080 318° Northwest 465 535 36,000  Level FlightAware
04:10AM 21.9830 -87.7520 317° Northwest 466 536 36,000  Level FlightAware
04:11AM 22.0840 -87.8520 317° Northwest 466 536 36,000  Level FlightAware
04:12AM 22.1320 -87.9010 317° Northwest 466 536 36,000  Level FlightAware
04:13AM 22.1970 -87.9660 317° Northwest 466 536 36,000  Level FlightAware
04:13AM 22.2490 -88.0180 317° Northwest 466 536 36,000  Level FlightAware
04:14AM 22.2970 -88.0670 317° Northwest 466 536 36,000  Level FlightAware
04:14AM 22.3450 -88.1160 317° Northwest 466 536 36,000  Level FlightAware
04:15AM 22.4020 -88.1720 318° Northwest 466 536 36,000  Level FlightAware
04:16AM 22.4500 -88.2210 317° Northwest 466 536 36,000  Level FlightAware
04:16AM 22.5140 -88.2860 317° Northwest 466 536 36,000  Level FlightAware
04:17AM 22.5600 -88.3320 317° Northwest 466 536 36,000  Level FlightAware
04:18AM 22.6240 -88.3970 317° Northwest 466 536 36,000  Level FlightAware
04:18AM 22.6720 -88.4460 317° Northwest 466 536 36,000  Level FlightAware
04:19AM 22.7210 -88.4950 317° Northwest 466 536 36,000  Level FlightAware
04:20AM 22.7850 -88.5600 317° Northwest 466 536 36,000  Level FlightAware
04:23AM 23.0435 -88.7852 321° Northwest  Level Estimated
04:24AM 23.1410 -88.8704 321° Northwest  Level Estimated
04:25AM 23.2384 -88.9557 321° Northwest  Level Estimated
04:26AM 23.3358 -89.0412 321° Northwest  Level Estimated
04:27AM 23.4331 -89.1267 321° Northwest  Level Estimated
04:28AM 23.5304 -89.2124 321° Northwest  Level Estimated
04:29AM 23.6439 -89.2697 335° Northwest  Level FlightAware Approximate
04:30AM 23.7574 -89.3270 335° Northwest  Level FlightAware Approximate
04:31AM 23.8708 -89.3845 335° Northwest  Level FlightAware Approximate
04:32AM 23.9843 -89.4420 335° Northwest  Level FlightAware Approximate
04:33AM 24.0801 -89.5299 324° Northwest  Level Estimated
04:34AM 24.1833 -89.6073 326° Northwest  Level FlightAware Approximate
04:35AM 24.2864 -89.6849 326° Northwest  Level FlightAware Approximate
04:36AM 24.3895 -89.7625 326° Northwest  Level FlightAware Approximate
04:37AM 24.4848 -89.8514 318° Northwest  Level Estimated
04:38AM 24.5801 -89.9405 325° Northwest  Level Estimated
04:39AM 24.6858 -90.0140 328° Northwest  Level FlightAware Approximate
04:40AM 24.7914 -90.0876 328° Northwest  Level FlightAware Approximate
04:41AM 24.8971 -90.1613 328° Northwest  Level FlightAware Approximate
04:42AM 24.9915 -90.2517 325° Northwest  Level Estimated
04:43AM 25.0956 -90.3281 326° Northwest  Level FlightAware Approximate
04:44AM 25.1997 -90.4047 326° Northwest  Level FlightAware Approximate
04:45AM 25.3038 -90.4813 326° Northwest  Level FlightAware Approximate
04:46AM 25.4078 -90.5581 326° Northwest  Level FlightAware Approximate
04:47AM 25.5117 -90.6351 326° Northwest  Level FlightAware Approximate
04:48AM 25.6157 -90.7121 326° Northwest  Level FlightAware Approximate
04:49AM 25.7084 -90.8052 325° Northwest  Level Estimated
04:50AM 25.8124 -90.8822 326° Northwest  Level FlightAware Approximate
04:51AM 25.9164 -90.9594 326° Northwest  Level FlightAware Approximate
04:52AM 26.0203 -91.0368 326° Northwest  Level FlightAware Approximate
04:53AM 26.1242 -91.1143 326° Northwest  Level FlightAware Approximate
04:54AM 26.2280 -91.1919 326° Northwest  Level FlightAware Approximate
04:55AM 26.3318 -91.2697 326° Northwest  Level FlightAware Approximate
04:56AM 26.4224 -91.3659 326° Northwest  Level Estimated
04:56AM 26.6136 -91.5128 327° Northwest 461 531 38,000  Level Houston Center
04:57AM 26.5129 -91.4623 324° Northwest  Level Estimated
04:57AM 26.7178 -91.5917 326° Northwest 447 514 37,900  Level Houston Center
04:58AM 26.6182 -91.5377 327° Northwest  Level FlightAware Approximate
04:58AM 26.8144 -91.6606 328° Northwest 443 510 38,000  Level Houston Center
04:59AM 26.7234 -91.6132 327° Northwest  Level FlightAware Approximate
05:00AM 26.8286 -91.6889 327° Northwest  Level FlightAware Approximate
05:01AM 26.9338 -91.7648 327° Northwest  Level FlightAware Approximate
05:03AM 27.4086 -92.1382 328° Northwest 448 516 38,000  Level FlightAware ADS-B
05:05AM 27.5170 -92.2527 317° Northwest 444 511 38,000  Level FlightAware ADS-B
05:05AM 27.5617 -92.3014 316° Northwest 445 512 38,000  Level FlightAware ADS-B
05:06AM 27.6062 -92.3500 316° Northwest 446 513 38,000  Level FlightAware ADS-B
05:07AM 27.6953 -92.4633 316° Northwest 445 512 38,000 -60 Level Houston Center
05:08AM 27.7853 -92.5622 316° Northwest 450 518 37,900  Descending Houston Center
05:09AM 27.8747 -92.6569 317° Northwest 444 511 38,000  Climbing Houston Center
05:10AM 27.9636 -92.7542 316° Northwest 444 511 38,000  Level Houston Center
05:11AM 28.0511 -92.8528 315° West 444 511 38,000 -60 Level Houston Center
05:12AM 28.1400 -92.9486 316° Northwest 442 509 37,900  Descending Houston Center
05:13AM 28.2289 -93.0450 316° Northwest 442 509 38,000  Climbing Houston Center
05:14AM 28.3186 -93.1408 317° Northwest 442 509 38,000 -60 Level Houston Center
05:15AM 28.4075 -93.2375 316° Northwest 442 509 37,900  Descending Houston Center
05:16AM 28.4908 -93.3258 317° Northwest 443 510 38,000  Climbing Houston Center
05:17AM 28.5794 -93.4228 316° Northwest 443 510 38,000 -1,560 Level Houston Center
05:24AM 29.2624 -94.1473 316° Northwest 424 488 25,800 -1,800 Descending FlightAware ADS-B
05:25AM 29.3052 -94.1941 316° Northwest 414 476 24,500 -2,460 Descending FlightAware ADS-B
05:25AM 29.3466 -94.2394 316° Northwest 405 466 23,300 -2,400 Descending FlightAware ADS-B
05:26AM 29.3858 -94.2829 316° Northwest 398 458 22,100 -2,580 Descending FlightAware ADS-B
05:27AM 29.4723 -94.3798 314° West 390 449 19,200 -2,580 Descending FlightAware ADS-B
05:28AM 29.5435 -94.4697 314° West 384 442 16,700 -2,580 Descending FlightAware ADS-B
05:29AM 29.6202 -94.5539 317° Northwest 378 435 14,200 -2,400 Descending FlightAware ADS-B
05:29AM 29.6583 -94.5955 317° Northwest 372 428 13,100 -2,400 Descending FlightAware ADS-B
05:30AM 29.6963 -94.6356 317° Northwest 372 428 11,800 -2,400 Descending FlightAware ADS-B
05:30AM 29.7345 -94.6759 318° Northwest 363 418 10,700 -1,740 Descending FlightAware ADS-B
05:31AM 29.7711 -94.7148 317° Northwest 341 392 10,100 -960 Descending FlightAware ADS-B
05:31AM 29.7886 -94.7330 318° Northwest 326 375 10,000 -240 Descending FlightAware ADS-B
05:31AM 29.8047 -94.7501 317° Northwest 308 354 10,000 -240 Level FlightAware ADS-B
05:32AM 29.8201 -94.7663 318° Northwest 293 337 9,900 -420 Descending FlightAware ADS-B
05:32AM 29.8349 -94.7822 317° Northwest 280 322 9,800 -1,200 Descending FlightAware ADS-B
05:32AM 29.8495 -94.7983 316° Northwest 284 327 9,300 -1,680 Descending FlightAware ADS-B
05:33AM 29.8940 -94.8459 317° Northwest 286 329 8,100 -1,620 Descending FlightAware ADS-B
05:33AM 29.9010 -94.8533 317° Northwest 285 328 7,900 -1,320 Descending FlightAware ADS-B
05:33AM 29.9158 -94.8690 317° Northwest 282 325 7,600 -1,200 Descending FlightAware ADS-B
05:33AM 29.9300 -94.8849 316° Northwest 281 323 7,300 -1,620 Descending FlightAware ADS-B
05:34AM 29.9589 -94.9164 317° Northwest 287 330 6,400 -1,800 Descending FlightAware ADS-B
05:34AM 29.9694 -94.9273 318° Northwest 285 328 6,100 -1,440 Descending FlightAware ADS-B
05:34AM 29.9843 -94.9425 319° Northwest 283 326 5,800 -1,200 Descending FlightAware ADS-B
05:35AM 29.9991 -94.9580 318° Northwest 279 321 5,500 -1,200 Descending FlightAware ADS-B
05:35AM 30.0134 -94.9732 317° Northwest 277 319 5,200 -840 Descending FlightAware ADS-B
05:35AM 30.0271 -94.9882 317° Northwest 268 308 5,100 -840 Descending FlightAware ADS-B
05:35AM 30.0341 -94.9961 316° Northwest 265 305 4,900 -1,200 Descending FlightAware ADS-B
05:35AM 30.0399 -95.0042 307° West 260 299 4,800 -600 Descending FlightAware ADS-B
05:35AM 30.0421 -95.0079 304° West 257 296 4,800  Level FlightAware ADS-B
05:36AM 30.0440 -95.0123 297° West 254 292 4,800  Level FlightAware ADS-B
05:36AM 30.0475 -95.0260 283° West 244 281 4,800  Level FlightAware ADS-B
05:36AM 30.0482 -95.0323 277° West 243 280 4,800 -720 Level FlightAware ADS-B
05:36AM 30.0486 -95.0482 272° West 252 290 4,600 -660 Descending FlightAware ADS-B
05:36AM 30.0498 -95.0838 271° West 243 280 4,400 -780 Descending FlightAware ADS-B
05:37AM 30.0500 -95.0999 271° West 233 268 4,100 -1,200 Descending FlightAware ADS-B
05:37AM 30.0495 -95.1383 269° West 200 230 3,500 -1,080 Descending FlightAware ADS-B
05:38AM 30.0498 -95.1801 270° West 170 196 2,800 -1,020 Descending FlightAware ADS-B
05:39AM 30.0504 -95.2224 270° West 154 177 2,000 -960 Descending FlightAware ADS-B
05:39AM 30.0500 -95.2341 268° West 151 174 1,800 -840 Descending FlightAware ADS-B
05:39AM 30.0502 -95.2461 271° West 150 173 1,600 -720 Descending FlightAware ADS-B
05:39AM 30.0504 -95.2554 271° West 148 170 1,500 -720 Descending FlightAware ADS-B
05:40AM 30.0504 -95.2668 270° West 144 166 1,300 -840 Descending FlightAware ADS-B
05:40AM 30.0505 -95.2726 271° West 142 163 1,200 -780 Descending FlightAware ADS-B
05:40AM 30.0505 -95.2788 270° West 139 160 1,100 -840 Descending FlightAware ADS-B
05:40AM 30.0505 -95.2901 270° West 139 160 900 -780 Descending FlightAware ADS-B
05:40AM 30.0509 -95.3028 272° West 139 160 700 -780 Descending FlightAware ADS-B
05:41AM 30.0511 -95.3144 271° West 136 157 500 -780 Descending FlightAware ADS-B
05:41AM 30.0512 -95.3255 271° West 136 157 300 -780 Descending FlightAware ADS-B
05:41AM 30.0514 -95.3371 271° West 138 159 100 -780 Descending FlightAware ADS-B